Time;durP1;ratioP1;P1;durP2;ratioP2;P2;SDS_P1;SDS_P2;PMS_P1;PMS_P2;Temp;Humidity;BMP_temperature;BMP_pressure;BME280_temperature;BME280_humidity;BME280_pressure;Samples;Min_cycle;Max_cycle;Signal;HPM_P1;HPM_P2
2021/10/13 00:00:25;;;;;;;5.18;0.88;;;7.70;99.90;;;;;;5093005;28;20024;-89
2021/10/13 00:02:50;;;;;;;5.90;0.70;;;7.70;99.90;;;;;;5092590;28;20111;-88
2021/10/13 00:05:16;;;;;;;6.35;0.90;;;7.70;99.90;;;;;;5092780;28;20024;-89
2021/10/13 00:07:42;;;;;;;6.03;0.80;;;7.70;99.90;;;;;;5092862;28;20020;-89
2021/10/13 00:10:08;;;;;;;4.05;0.60;;;7.70;99.90;;;;;;5092717;28;20038;-89
2021/10/13 00:12:34;;;;;;;5.20;0.80;;;7.60;99.90;;;;;;5092259;28;20072;-89
2021/10/13 00:15:05;;;;;;;4.13;0.60;;;7.50;99.90;;;;;;5092381;28;20027;-88
2021/10/13 00:17:31;;;;;;;2.50;0.63;;;7.40;99.90;;;;;;5092510;28;20032;-89
2021/10/13 00:19:57;;;;;;;5.60;0.80;;;7.30;99.90;;;;;;5092516;28;20426;-89
2021/10/13 00:22:23;;;;;;;2.17;0.50;;;7.20;99.90;;;;;;5092559;28;20027;-89
2021/10/13 00:24:48;;;;;;;4.00;0.50;;;7.00;99.90;;;;;;5092289;28;20391;-89
2021/10/13 00:27:14;;;;;;;3.40;0.98;;;7.00;99.90;;;;;;5092283;28;20034;-89
2021/10/13 00:29:40;;;;;;;3.88;0.70;;;7.00;99.90;;;;;;5092249;28;20030;-88
2021/10/13 00:32:06;;;;;;;2.00;0.40;;;7.00;99.90;;;;;;5092146;28;20073;-89
2021/10/13 00:34:32;;;;;;;4.82;0.40;;;6.90;99.90;;;;;;5092185;28;20042;-89
2021/10/13 00:36:58;;;;;;;3.40;0.47;;;6.80;99.90;;;;;;5092405;28;20023;-89
2021/10/13 00:39:24;;;;;;;1.33;0.47;;;6.90;99.90;;;;;;5108932;28;20043;-89
2021/10/13 00:41:50;;;;;;;2.88;0.47;;;6.70;99.90;;;;;;5108634;28;20028;-89
2021/10/13 00:44:16;;;;;;;3.92;0.55;;;6.60;99.90;;;;;;5091856;28;20027;-89
2021/10/13 00:46:42;;;;;;;2.05;0.40;;;6.50;99.90;;;;;;5127376;28;20036;-89
2021/10/13 00:49:07;;;;;;;2.65;0.63;;;6.50;99.90;;;;;;5108919;28;20035;-88
2021/10/13 00:51:34;;;;;;;2.78;0.50;;;6.40;99.90;;;;;;5109077;28;20032;-89
2021/10/13 00:54:00;;;;;;;4.22;0.50;;;6.40;99.90;;;;;;5092123;28;20122;-89
2021/10/13 00:56:26;;;;;;;3.42;0.40;;;6.30;99.90;;;;;;5108666;28;20099;-89
2021/10/13 00:58:53;;;;;;;2.88;0.50;;;6.20;99.90;;;;;;5091870;28;20039;-89
2021/10/13 01:01:34;;;;;;;3.50;0.40;;;6.10;99.90;;;;;;5127116;28;20024;-89
2021/10/13 01:04:16;;;;;;;3.78;0.50;;;6.10;99.90;;;;;;5108740;28;20042;-89
2021/10/13 01:07:24;;;;;;;1.42;0.30;;;6.20;99.90;;;;;;5109164;28;20031;-89
2021/10/13 01:10:03;;;;;;;1.67;0.20;;;6.20;99.90;;;;;;5127839;28;20030;-89
2021/10/13 01:13:02;;;;;;;2.97;0.35;;;6.40;99.90;;;;;;5091742;28;20044;-88
2021/10/13 01:15:48;;;;;;;2.83;0.40;;;6.50;99.90;;;;;;5087153;28;20031;-89
2021/10/13 01:18:18;;;;;;;2.80;0.30;;;6.30;99.90;;;;;;5091619;28;20035;-89
2021/10/13 01:21:19;;;;;;;2.55;0.35;;;6.20;99.90;;;;;;5091735;28;20028;-89
2021/10/13 01:24:10;;;;;;;4.90;0.40;;;6.60;99.90;;;;;;5087786;28;20036;-89
2021/10/13 01:27:05;;;;;;;4.88;0.30;;;6.70;99.90;;;;;;5091583;28;20062;-89
2021/10/13 01:29:33;;;;;;;1.60;0.20;;;6.70;99.90;;;;;;5091868;28;20027;-89
2021/10/13 01:32:06;;;;;;;1.50;0.40;;;6.70;99.90;;;;;;5091862;28;20062;-90
2021/10/13 01:34:39;;;;;;;2.25;0.30;;;6.60;99.90;;;;;;5091840;28;20063;-88
2021/10/13 01:37:13;;;;;;;1.13;0.20;;;6.30;99.90;;;;;;5091944;28;20039;-89
2021/10/13 01:39:44;;;;;;;2.15;0.10;;;6.20;99.90;;;;;;5091975;28;20096;-89
2021/10/13 01:42:15;;;;;;;1.00;0.20;;;6.10;99.90;;;;;;5091822;28;20031;-88
2021/10/13 01:45:02;;;;;;;1.88;0.20;;;6.50;99.90;;;;;;5093394;28;20039;-89
2021/10/13 01:47:32;;;;;;;3.40;0.40;;;6.70;99.90;;;;;;5031806;28;20052;-88
2021/10/13 01:50:00;;;;;;;4.93;0.30;;;6.70;99.90;;;;;;5047959;28;20037;-89
2021/10/13 01:52:27;;;;;;;2.42;0.30;;;6.70;99.90;;;;;;5030078;28;20439;-89
2021/10/13 01:54:59;;;;;;;2.38;0.20;;;6.70;99.90;;;;;;5046648;28;20041;-89
2021/10/13 01:57:27;;;;;;;0.95;0.40;;;6.70;99.90;;;;;;5046447;28;20029;-88
2021/10/13 01:59:56;;;;;;;2.35;0.20;;;6.70;99.90;;;;;;5048144;28;20099;-89
2021/10/13 02:02:27;;;;;;;2.13;0.20;;;6.60;99.90;;;;;;5050526;28;20112;-89
2021/10/13 02:04:55;;;;;;;5.25;0.20;;;6.60;99.90;;;;;;5033959;28;20437;-89
2021/10/13 02:07:22;;;;;;;2.22;0.50;;;6.40;99.90;;;;;;5050208;28;20025;-89
2021/10/13 02:09:50;;;;;;;4.05;0.20;;;6.30;99.90;;;;;;5050360;28;20106;-89
2021/10/13 02:12:17;;;;;;;1.25;0.30;;;6.30;99.90;;;;;;5049795;28;20037;-86
2021/10/13 02:14:44;;;;;;;3.67;0.40;;;6.10;99.90;;;;;;5050203;28;20036;-89
2021/10/13 02:17:12;;;;;;;2.30;0.20;;;6.10;99.90;;;;;;5050072;28;20025;-89
2021/10/13 02:19:40;;;;;;;2.33;0.20;;;6.00;99.90;;;;;;5050155;28;20063;-89
2021/10/13 02:22:07;;;;;;;1.05;0.30;;;5.80;99.90;;;;;;5049935;28;20536;-89
2021/10/13 02:24:44;;;;;;;3.33;0.10;;;5.80;99.90;;;;;;5081859;28;20134;-89
2021/10/13 02:27:29;;;;;;;1.33;0.20;;;5.90;99.90;;;;;;5094834;28;20459;-89
2021/10/13 02:29:55;;;;;;;0.88;0.10;;;5.80;99.90;;;;;;5094640;28;20278;-89
2021/10/13 02:32:20;;;;;;;1.30;0.35;;;5.70;99.90;;;;;;5094417;28;20046;-89
2021/10/13 02:34:47;;;;;;;1.15;0.10;;;5.70;99.90;;;;;;5094618;28;20027;-89
2021/10/13 02:37:12;;;;;;;3.83;0.20;;;5.60;99.90;;;;;;5094615;28;20028;-89
2021/10/13 02:39:38;;;;;;;0.82;0.20;;;5.60;99.90;;;;;;5094341;28;20032;-89
2021/10/13 02:42:04;;;;;;;2.47;0.20;;;5.60;99.90;;;;;;5094287;28;20421;-89
2021/10/13 02:44:50;;;;;;;0.55;0.10;;;5.60;99.90;;;;;;5094221;28;20527;-88
2021/10/13 02:47:39;;;;;;;1.20;0.43;;;5.60;99.90;;;;;;5033326;28;20048;-89
2021/10/13 02:50:04;;;;;;;2.75;0.25;;;5.60;99.90;;;;;;5049860;28;20040;-89
2021/10/13 02:52:39;;;;;;;1.75;0.20;;;5.50;99.90;;;;;;5049317;28;20596;-90
2021/10/13 02:55:29;;;;;;;0.82;0.20;;;5.40;99.90;;;;;;5049470;28;20032;-89
2021/10/13 02:58:00;;;;;;;2.27;0.20;;;5.40;99.90;;;;;;5049434;28;20036;-89
2021/10/13 03:00:27;;;;;;;1.02;0.20;;;5.30;99.90;;;;;;5049584;28;20819;-88
2021/10/13 03:03:00;;;;;;;0.50;0.10;;;5.40;99.90;;;;;;5049472;28;20048;-89
2021/10/13 03:05:27;;;;;;;1.38;0.17;;;5.40;99.90;;;;;;5049473;28;20033;-89
2021/10/13 03:07:59;;;;;;;1.70;0.20;;;5.50;99.90;;;;;;5049494;28;20040;-89
2021/10/13 03:10:27;;;;;;;1.52;0.30;;;5.50;99.90;;;;;;5032756;28;20059;-88
2021/10/13 03:12:57;;;;;;;1.25;0.20;;;5.50;99.90;;;;;;5048971;28;20056;-89
2021/10/13 03:15:25;;;;;;;1.90;0.20;;;5.60;99.90;;;;;;5032541;28;20041;-89
2021/10/13 03:17:54;;;;;;;1.15;0.20;;;5.80;99.90;;;;;;5049002;28;20041;-89
2021/10/13 03:20:20;;;;;;;2.30;0.20;;;5.80;99.90;;;;;;5049376;28;20536;-90
2021/10/13 03:22:47;;;;;;;0.85;0.15;;;5.80;99.90;;;;;;5065732;28;20096;-89
2021/10/13 03:25:12;;;;;;;0.73;0.20;;;5.80;99.90;;;;;;5101907;28;20036;-89
2021/10/13 03:27:38;;;;;;;1.83;0.20;;;5.80;99.90;;;;;;5093674;28;20054;-88
2021/10/13 03:30:05;;;;;;;0.73;0.10;;;5.80;99.90;;;;;;5093577;28;20032;-89
2021/10/13 03:32:31;;;;;;;1.27;0.20;;;5.70;99.90;;;;;;5093642;28;20070;-89
2021/10/13 03:34:57;;;;;;;1.17;0.20;;;5.80;99.90;;;;;;5093794;28;20031;-89
2021/10/13 03:37:22;;;;;;;1.13;0.20;;;5.80;99.90;;;;;;5093419;28;20039;-89
2021/10/13 03:39:49;;;;;;;1.55;0.20;;;5.90;99.90;;;;;;5093570;28;20065;-89
2021/10/13 03:42:15;;;;;;;2.08;0.20;;;5.90;99.90;;;;;;5093118;28;20050;-89
2021/10/13 03:45:02;;;;;;;1.50;0.20;;;6.00;99.90;;;;;;5093148;28;20032;-88
2021/10/13 03:47:27;;;;;;;0.82;0.20;;;6.00;99.90;;;;;;5031876;28;20105;-89
2021/10/13 03:49:53;;;;;;;1.35;0.22;;;6.00;99.90;;;;;;5048829;28;20099;-87
2021/10/13 03:52:19;;;;;;;0.70;0.20;;;6.00;99.90;;;;;;5033163;28;20041;-89
2021/10/13 03:54:44;;;;;;;1.55;0.20;;;6.10;99.90;;;;;;5032036;28;20087;-89
2021/10/13 03:57:10;;;;;;;2.92;0.20;;;6.10;99.90;;;;;;5049036;28;20082;-89
2021/10/13 03:59:36;;;;;;;2.08;0.45;;;6.30;99.90;;;;;;5048421;28;20044;-90
2021/10/13 04:02:02;;;;;;;1.80;0.22;;;6.40;99.90;;;;;;5048477;28;20029;-89
2021/10/13 04:04:27;;;;;;;3.78;0.30;;;6.40;99.90;;;;;;5048541;28;20047;-89
2021/10/13 04:06:53;;;;;;;1.30;0.30;;;6.50;99.90;;;;;;5048095;28;20029;-89
2021/10/13 04:09:19;;;;;;;1.45;0.30;;;6.60;99.90;;;;;;5048329;28;20033;-89
2021/10/13 04:11:44;;;;;;;1.83;0.30;;;6.70;99.90;;;;;;5048171;28;20080;-89
2021/10/13 04:14:10;;;;;;;1.40;0.20;;;6.60;99.90;;;;;;5047824;28;20242;-89
2021/10/13 04:16:36;;;;;;;2.47;0.30;;;6.70;99.90;;;;;;5064692;28;20052;-89
2021/10/13 04:19:02;;;;;;;1.80;0.30;;;6.90;99.90;;;;;;5048372;28;20107;-89
2021/10/13 04:21:36;;;;;;;2.78;0.30;;;6.90;99.90;;;;;;5048247;28;20057;-89
2021/10/13 04:24:02;;;;;;;1.80;0.30;;;7.20;99.90;;;;;;5066519;28;20059;-89
2021/10/13 04:26:28;;;;;;;2.50;0.30;;;7.30;99.90;;;;;;5092525;28;20027;-88
2021/10/13 04:28:53;;;;;;;1.98;0.20;;;7.40;99.90;;;;;;5092324;28;20471;-89
2021/10/13 04:31:19;;;;;;;1.15;0.20;;;7.20;99.90;;;;;;5092206;28;20023;-87
2021/10/13 04:33:45;;;;;;;3.10;0.28;;;7.10;99.90;;;;;;5092128;28;20399;-89
2021/10/13 04:36:11;;;;;;;2.47;0.20;;;7.00;99.90;;;;;;5092313;28;20035;-88
2021/10/13 04:38:36;;;;;;;1.13;0.20;;;7.10;99.90;;;;;;5092133;28;20059;-89
2021/10/13 04:41:02;;;;;;;0.57;0.17;;;7.10;99.90;;;;;;5092644;28;20046;-89
2021/10/13 04:43:28;;;;;;;2.58;0.90;;;7.10;99.90;;;;;;5092459;28;20050;-89
2021/10/13 04:45:54;;;;;;;1.13;0.20;;;7.00;99.90;;;;;;5081050;22;20042;-89
2021/10/13 04:48:19;;;;;;;3.08;0.98;;;7.00;99.90;;;;;;5045581;28;20435;-87
2021/10/13 04:50:45;;;;;;;1.35;0.40;;;7.00;99.90;;;;;;5045512;28;20021;-89
2021/10/13 04:53:11;;;;;;;2.08;0.20;;;7.10;99.90;;;;;;5045286;28;20041;-87
2021/10/13 04:55:36;;;;;;;0.88;0.20;;;7.10;99.90;;;;;;5045476;28;20052;-89
2021/10/13 04:58:02;;;;;;;1.50;0.20;;;7.00;99.90;;;;;;5045325;28;20029;-89
2021/10/13 05:00:28;;;;;;;1.45;0.20;;;6.90;99.90;;;;;;5045333;28;20041;-89
2021/10/13 05:02:54;;;;;;;1.88;0.20;;;6.90;99.90;;;;;;5061898;28;20056;-88
2021/10/13 05:05:19;;;;;;;1.70;0.20;;;6.80;99.90;;;;;;5045554;28;20029;-88
2021/10/13 05:07:45;;;;;;;1.58;0.30;;;6.80;99.90;;;;;;5045042;28;20060;-89
2021/10/13 05:10:11;;;;;;;1.40;0.20;;;7.00;99.90;;;;;;5045338;28;20033;-89
2021/10/13 05:12:37;;;;;;;4.95;0.57;;;7.00;99.90;;;;;;5045192;28;20068;-88
2021/10/13 05:15:03;;;;;;;2.92;0.47;;;7.40;99.90;;;;;;5045116;28;20025;-89
2021/10/13 05:17:28;;;;;;;4.82;0.40;;;7.50;99.90;;;;;;5061888;28;20061;-88
2021/10/13 05:19:54;;;;;;;3.58;0.52;;;7.70;99.90;;;;;;5045166;28;20033;-89
2021/10/13 05:22:20;;;;;;;3.03;0.60;;;7.70;99.90;;;;;;5045055;28;20392;-89
2021/10/13 05:24:45;;;;;;;4.07;0.50;;;7.80;99.90;;;;;;5044888;28;20045;-89
2021/10/13 05:27:11;;;;;;;3.95;0.70;;;7.80;99.90;;;;;;5044776;28;20030;-89
2021/10/13 05:29:36;;;;;;;8.45;0.50;;;7.80;99.90;;;;;;5044790;28;20030;-89
2021/10/13 05:32:02;;;;;;;3.47;0.50;;;7.80;99.90;;;;;;5061391;28;20091;-89
2021/10/13 05:34:28;;;;;;;3.92;0.60;;;7.90;99.90;;;;;;5045564;28;20132;-89
2021/10/13 05:36:53;;;;;;;5.13;0.60;;;7.90;99.90;;;;;;5048703;28;20053;-89
2021/10/13 05:39:19;;;;;;;3.75;0.70;;;7.90;99.90;;;;;;5065476;28;20136;-88
2021/10/13 05:41:45;;;;;;;1.92;0.45;;;7.90;99.90;;;;;;5049750;28;20096;-89
2021/10/13 05:44:10;;;;;;;3.08;0.55;;;7.80;99.90;;;;;;5048594;28;20492;-88
2021/10/13 05:46:36;;;;;;;2.85;0.45;;;7.80;99.90;;;;;;5064951;28;20509;-90
2021/10/13 05:49:02;;;;;;;3.40;0.50;;;7.80;99.90;;;;;;5032132;28;20029;-90
2021/10/13 05:51:28;;;;;;;2.45;0.60;;;7.80;99.90;;;;;;5031964;28;20033;-89
2021/10/13 05:53:54;;;;;;;6.65;0.60;;;7.90;99.90;;;;;;5031927;28;20057;-91
2021/10/13 05:56:19;;;;;;;7.90;0.73;;;7.90;99.90;;;;;;5048742;28;20033;-91
2021/10/13 05:58:47;;;;;;;5.35;0.50;;;7.90;99.90;;;;;;5048484;28;20095;-90
2021/10/13 06:01:17;;;;;;;3.17;0.60;;;7.90;99.90;;;;;;5048302;28;20089;-90
2021/10/13 06:03:43;;;;;;;4.28;0.60;;;8.00;99.90;;;;;;5048287;28;20044;-90
2021/10/13 06:06:09;;;;;;;5.05;0.75;;;8.00;99.90;;;;;;5048616;28;20029;-90
2021/10/13 06:08:34;;;;;;;5.05;0.98;;;8.00;99.90;;;;;;5048431;28;20033;-91
2021/10/13 06:11:00;;;;;;;2.97;0.70;;;8.00;99.90;;;;;;5047800;28;20507;-90
2021/10/13 06:13:26;;;;;;;4.82;1.17;;;8.00;99.90;;;;;;5047418;28;20049;-91
2021/10/13 06:15:53;;;;;;;4.90;1.10;;;7.90;99.90;;;;;;5047372;28;20032;-91
2021/10/13 06:18:19;;;;;;;5.47;1.00;;;7.90;99.90;;;;;;5047322;28;20049;-90
2021/10/13 06:20:45;;;;;;;4.97;0.60;;;7.90;99.90;;;;;;5047526;28;20264;-90
2021/10/13 06:23:11;;;;;;;3.75;0.90;;;7.90;99.90;;;;;;5047564;28;20037;-90
2021/10/13 06:25:37;;;;;;;2.63;0.90;;;7.90;99.90;;;;;;5047154;28;20112;-91
2021/10/13 06:28:02;;;;;;;5.50;0.70;;;7.90;99.90;;;;;;5047086;28;20025;-90
2021/10/13 06:30:31;;;;;;;4.65;1.13;;;7.80;99.90;;;;;;5047471;28;20029;-90
2021/10/13 06:32:57;;;;;;;4.45;0.82;;;7.80;99.90;;;;;;5047273;28;20045;-90
2021/10/13 06:35:22;;;;;;;4.50;0.95;;;7.90;99.90;;;;;;5047093;28;20037;-90
2021/10/13 06:37:49;;;;;;;6.50;1.02;;;7.90;99.90;;;;;;5047185;28;20063;-89
2021/10/13 06:40:15;;;;;;;3.92;0.75;;;8.00;99.90;;;;;;5063891;28;20041;-91
2021/10/13 06:42:41;;;;;;;6.50;0.70;;;8.00;99.90;;;;;;5048241;28;20161;-90
2021/10/13 06:45:09;;;;;;;5.95;0.88;;;8.20;99.90;;;;;;5030049;28;20097;-89
2021/10/13 06:47:35;;;;;;;2.83;0.65;;;8.20;99.90;;;;;;5046563;28;20049;-90
2021/10/13 06:50:00;;;;;;;3.92;0.60;;;8.30;99.90;;;;;;5063618;28;20079;-90
2021/10/13 06:52:26;;;;;;;5.78;0.60;;;8.30;99.90;;;;;;5029946;28;20042;-89
2021/10/13 06:54:52;;;;;;;2.42;0.57;;;8.40;99.90;;;;;;5038292;28;20056;-90
2021/10/13 06:57:17;;;;;;;5.00;0.60;;;8.40;99.90;;;;;;5046634;28;20030;-91
2021/10/13 06:59:43;;;;;;;3.85;1.02;;;8.40;99.90;;;;;;5046491;28;20037;-90
2021/10/13 07:02:09;;;;;;;3.45;0.50;;;8.50;99.90;;;;;;5046390;28;20049;-89
2021/10/13 07:04:34;;;;;;;8.50;0.70;;;8.50;99.90;;;;;;5046562;28;20030;-89
2021/10/13 07:07:00;;;;;;;3.05;0.45;;;8.50;99.90;;;;;;5046364;28;20033;-89
2021/10/13 07:09:26;;;;;;;4.15;0.60;;;8.60;99.90;;;;;;5063229;28;20079;-89
2021/10/13 07:11:51;;;;;;;5.82;0.75;;;8.60;99.90;;;;;;5062731;28;20037;-90
2021/10/13 07:14:17;;;;;;;4.82;0.50;;;8.60;99.90;;;;;;5062804;28;20525;-89
2021/10/13 07:16:45;;;;;;;6.30;0.77;;;8.70;99.90;;;;;;5062566;28;20040;-91
2021/10/13 07:19:11;;;;;;;7.18;1.27;;;8.80;99.90;;;;;;5046332;28;20033;-89
2021/10/13 07:21:37;;;;;;;4.47;0.60;;;9.00;99.90;;;;;;5046391;28;20039;-89
2021/10/13 07:24:03;;;;;;;4.68;0.90;;;9.00;99.90;;;;;;5046106;28;20089;-89
2021/10/13 07:26:29;;;;;;;4.75;0.60;;;9.00;99.90;;;;;;5046022;28;20272;-89
2021/10/13 07:28:55;;;;;;;5.88;0.52;;;9.00;99.90;;;;;;5046055;28;20319;-91
2021/10/13 07:31:21;;;;;;;7.03;0.52;;;9.10;99.90;;;;;;5045930;28;20060;-90
2021/10/13 07:33:47;;;;;;;7.38;0.63;;;9.20;99.90;;;;;;5045868;28;20041;-90
2021/10/13 07:36:12;;;;;;;4.60;0.57;;;9.20;99.90;;;;;;5046009;28;20384;-91
2021/10/13 07:38:39;;;;;;;3.10;0.45;;;9.20;99.90;;;;;;5045709;28;20382;-90
2021/10/13 07:41:05;;;;;;;4.82;0.52;;;9.30;99.90;;;;;;5045522;28;20041;-89
2021/10/13 07:43:32;;;;;;;4.78;0.70;;;9.30;99.90;;;;;;5045816;28;20128;-90
2021/10/13 07:45:58;;;;;;;4.53;0.50;;;9.40;99.90;;;;;;5045473;28;20136;-90
2021/10/13 07:48:25;;;;;;;4.43;0.80;;;9.40;99.90;;;;;;5045632;28;20033;-88
2021/10/13 07:50:52;;;;;;;6.10;0.60;;;9.40;99.90;;;;;;5045388;28;20041;-90
2021/10/13 07:53:18;;;;;;;3.92;0.70;;;9.50;99.90;;;;;;5045667;28;20401;-89
2021/10/13 07:55:44;;;;;;;5.13;0.57;;;9.50;99.90;;;;;;5046634;28;20026;-90
2021/10/13 07:58:10;;;;;;;2.42;0.60;;;9.50;99.90;;;;;;5044963;28;20521;-88
2021/10/13 08:00:35;;;;;;;4.68;1.13;;;9.60;99.90;;;;;;5045338;28;20092;-89
2021/10/13 08:03:01;;;;;;;5.03;0.70;;;9.80;99.90;;;;;;5045345;28;20091;-90
2021/10/13 08:05:27;;;;;;;6.45;1.17;;;9.70;99.90;;;;;;5061689;28;20033;-90
2021/10/13 08:07:52;;;;;;;4.82;0.80;;;9.80;99.90;;;;;;5045333;28;20039;-91
2021/10/13 08:10:18;;;;;;;5.50;1.15;;;9.80;99.90;;;;;;5045309;28;20060;-90
2021/10/13 08:12:44;;;;;;;5.95;0.70;;;9.80;99.90;;;;;;5061457;28;20041;-91
2021/10/13 08:15:10;;;;;;;4.15;0.55;;;10.00;99.90;;;;;;5045097;28;20117;-90
2021/10/13 08:17:36;;;;;;;7.18;0.65;;;10.00;99.90;;;;;;5046355;28;20041;-90
2021/10/13 08:20:03;;;;;;;8.75;0.60;;;10.20;99.90;;;;;;5045123;28;20097;-90
2021/10/13 08:22:32;;;;;;;5.10;0.65;;;10.30;99.90;;;;;;5045035;28;20033;-91
2021/10/13 08:24:58;;;;;;;6.07;0.60;;;10.50;99.90;;;;;;5044871;28;20025;-90
2021/10/13 08:27:23;;;;;;;6.97;0.60;;;10.60;99.90;;;;;;5044828;28;20043;-90
2021/10/13 08:29:49;;;;;;;5.13;0.98;;;10.60;99.90;;;;;;5045002;28;20426;-90
2021/10/13 08:32:15;;;;;;;7.82;0.70;;;10.60;99.90;;;;;;5044674;28;20137;-90
2021/10/13 08:34:40;;;;;;;5.57;0.98;;;10.50;99.90;;;;;;5044946;28;20048;-90
2021/10/13 08:37:07;;;;;;;6.88;0.70;;;10.60;99.90;;;;;;5044315;28;20070;-90
2021/10/13 08:39:33;;;;;;;3.88;0.77;;;10.70;99.90;;;;;;5045003;28;20077;-91
2021/10/13 08:41:59;;;;;;;2.13;0.60;;;10.60;99.90;;;;;;5044576;28;20029;-91
2021/10/13 08:44:46;;;;;;;10.55;0.93;;;10.60;99.90;;;;;;5045042;28;20132;-87
2021/10/13 08:47:12;;;;;;;8.57;0.85;;;10.60;99.90;;;;;;5044019;28;20100;-89
2021/10/13 08:49:41;;;;;;;5.45;0.60;;;10.60;99.90;;;;;;5028206;28;20044;-89
2021/10/13 08:52:08;;;;;;;6.10;0.88;;;10.70;99.90;;;;;;5044053;28;20025;-91
2021/10/13 08:54:34;;;;;;;7.47;0.80;;;10.70;99.90;;;;;;5027986;28;20079;-90
2021/10/13 08:57:00;;;;;;;4.78;1.00;;;10.80;99.90;;;;;;5027932;28;20061;-90
2021/10/13 08:59:43;;;;;;;4.45;0.77;;;10.90;99.90;;;;;;5044651;28;20041;-90
2021/10/13 09:02:10;;;;;;;5.15;0.73;;;11.00;99.90;;;;;;5060910;28;20033;-90
2021/10/13 09:04:36;;;;;;;6.40;1.23;;;11.00;99.90;;;;;;5044305;28;20048;-90
2021/10/13 09:07:03;;;;;;;3.17;0.50;;;11.10;99.90;;;;;;5044089;28;20097;-90
2021/10/13 09:09:29;;;;;;;4.80;0.95;;;11.20;99.90;;;;;;5044347;28;20033;-90
2021/10/13 09:11:55;;;;;;;7.43;0.70;;;11.20;99.90;;;;;;5044162;28;20381;-90
2021/10/13 09:14:24;;;;;;;3.70;0.57;;;11.20;99.90;;;;;;5044191;28;20037;-88
2021/10/13 09:17:02;;;;;;;5.85;0.60;;;11.30;99.90;;;;;;5044073;28;20366;-90
2021/10/13 09:19:43;;;;;;;10.13;0.73;;;11.40;99.90;;;;;;5027786;28;20041;-88
2021/10/13 09:22:11;;;;;;;10.65;1.02;;;11.40;99.90;;;;;;5043831;28;20029;-90
2021/10/13 09:24:46;;;;;;;10.70;0.60;;;11.50;99.90;;;;;;5044316;28;20477;-90
2021/10/13 09:27:24;;;;;;;6.80;0.80;;;11.50;99.90;;;;;;5044300;28;20092;-90
2021/10/13 09:30:07;;;;;;;3.78;0.80;;;11.60;99.90;;;;;;5027758;28;20030;-89
2021/10/13 09:32:39;;;;;;;3.90;0.63;;;11.70;99.90;;;;;;5044088;28;20034;-90
2021/10/13 09:35:05;;;;;;;6.03;0.73;;;11.70;99.90;;;;;;5027975;28;20033;-90
2021/10/13 09:37:43;;;;;;;4.90;0.60;;;11.70;99.90;;;;;;5043689;28;20022;-91
2021/10/13 09:40:10;;;;;;;5.35;0.70;;;11.70;99.90;;;;;;5044081;28;20033;-90
2021/10/13 09:42:37;;;;;;;5.22;0.90;;;11.80;99.90;;;;;;5043846;28;20093;-91
2021/10/13 09:45:03;;;;;;;4.30;0.70;;;11.70;99.90;;;;;;5027398;28;20121;-87
2021/10/13 09:47:35;;;;;;;4.45;0.57;;;11.80;99.90;;;;;;5060239;28;20103;-89
2021/10/13 09:50:06;;;;;;;7.80;0.90;;;11.80;99.90;;;;;;5044142;28;20034;-92
2021/10/13 09:52:32;;;;;;;8.10;0.50;;;11.80;99.90;;;;;;5043525;28;20029;-92
2021/10/13 09:54:59;;;;;;;4.05;0.70;;;11.90;99.90;;;;;;5031436;28;20068;-90
2021/10/13 09:57:27;;;;;;;5.07;0.70;;;12.20;99.90;;;;;;5025226;28;20040;-91
2021/10/13 09:59:59;;;;;;;5.72;0.80;;;12.50;99.90;;;;;;5040632;28;20026;-89
2021/10/13 10:02:30;;;;;;;2.88;0.40;;;12.40;99.90;;;;;;5040387;28;20084;-90
2021/10/13 10:04:57;;;;;;;4.20;0.45;;;12.50;99.90;;;;;;5023924;28;20069;-91
2021/10/13 10:07:22;;;;;;;3.40;0.50;;;12.80;99.90;;;;;;5024221;28;20101;-91
2021/10/13 10:10:10;;;;;;;6.03;0.57;;;12.70;99.90;;;;;;5040523;28;20025;-91
2021/10/13 10:13:08;;;;;;;4.15;0.68;;;12.80;99.90;;;;;;5040718;28;20037;-91
2021/10/13 10:15:41;;;;;;;3.28;0.60;;;13.00;99.90;;;;;;5040347;28;20125;-90
2021/10/13 10:18:34;;;;;;;3.50;0.43;;;13.00;99.90;;;;;;5040352;28;20041;-87
2021/10/13 10:21:20;;;;;;;4.68;0.45;;;13.00;99.90;;;;;;5042040;28;20030;-88
2021/10/13 10:23:58;;;;;;;4.40;0.30;;;13.00;99.90;;;;;;5027208;28;20037;-90
2021/10/13 10:26:27;;;;;;;2.47;0.20;;;13.10;99.90;;;;;;5027403;28;20044;-87
2021/10/13 10:28:53;;;;;;;2.83;0.40;;;13.50;99.90;;;;;;5043894;28;20089;-91
2021/10/13 10:31:28;;;;;;;3.65;0.40;;;13.40;99.90;;;;;;5043950;28;20032;-90
2021/10/13 10:34:02;;;;;;;5.40;0.45;;;13.70;99.90;;;;;;5043901;28;20045;-90
2021/10/13 10:36:34;;;;;;;1.92;0.30;;;13.60;99.90;;;;;;5043876;28;20034;-89
2021/10/13 10:39:03;;;;;;;5.50;0.30;;;13.90;99.90;;;;;;5059533;28;20044;-89
2021/10/13 10:41:55;;;;;;;6.07;0.30;;;13.70;99.90;;;;;;5030171;28;20076;-90
2021/10/13 10:44:47;;;;;;;4.80;0.30;;;13.10;99.90;;;;;;5046550;28;20038;-86
2021/10/13 10:47:17;;;;;;;3.60;0.25;;;13.00;99.90;;;;;;5009197;28;20430;-87
2021/10/13 10:49:43;;;;;;;;;;;13.40;99.90;;;;;;5009850;28;20108;-86
2021/10/13 10:52:10;;;;;;;4.30;0.30;;;13.70;99.90;;;;;;4992938;28;19913;-86
2021/10/13 10:54:36;;;;;;;3.17;0.30;;;13.60;99.90;;;;;;5008968;28;20041;-89
2021/10/13 10:57:22;;;;;;;0.73;0.20;;;13.40;99.90;;;;;;5009171;28;20030;-88
2021/10/13 10:59:48;;;;;;;5.97;0.35;;;13.30;99.90;;;;;;5008948;28;20046;-88
2021/10/13 11:02:21;;;;;;;4.03;0.40;;;13.10;99.90;;;;;;5025610;28;20194;-87
2021/10/13 11:05:01;;;;;;;2.80;0.90;;;13.00;99.90;;;;;;5025410;28;20541;-89
2021/10/13 11:07:28;;;;;;;5.00;0.82;;;13.00;99.90;;;;;;5009326;28;20034;-89
2021/10/13 11:10:08;;;;;;;8.02;0.40;;;12.90;99.90;;;;;;5009006;28;20038;-88
2021/10/13 11:12:49;;;;;;;5.65;0.30;;;12.90;99.90;;;;;;5008758;28;20472;-89
2021/10/13 11:15:16;;;;;;;3.58;0.30;;;12.80;99.90;;;;;;4992786;28;20049;-89
2021/10/13 11:17:42;;;;;;;4.35;0.20;;;12.70;99.90;;;;;;5009067;28;20061;-88
2021/10/13 11:20:10;;;;;;;4.90;0.20;;;12.70;99.90;;;;;;4992661;28;20485;-87
2021/10/13 11:22:36;;;;;;;2.47;0.30;;;12.70;99.90;;;;;;5008996;28;20041;-88
2021/10/13 11:25:23;;;;;;;2.60;0.20;;;12.60;99.90;;;;;;5043157;28;20034;-87
2021/10/13 11:28:02;;;;;;;1.13;0.10;;;12.70;99.90;;;;;;5046004;28;20044;-87
2021/10/13 11:30:29;;;;;;;1.27;0.17;;;12.60;99.90;;;;;;5046097;28;20029;-88
2021/10/13 11:32:57;;;;;;;5.70;0.32;;;12.60;99.90;;;;;;5046275;28;20081;-88
2021/10/13 11:35:23;;;;;;;3.88;0.30;;;12.70;99.90;;;;;;5045989;28;20034;-89
2021/10/13 11:37:50;;;;;;;3.10;0.20;;;12.80;99.90;;;;;;5047308;28;20037;-88
2021/10/13 11:40:18;;;;;;;2.97;0.40;;;12.80;99.90;;;;;;5045884;28;20037;-89
2021/10/13 11:42:44;;;;;;;2.65;0.20;;;12.70;99.90;;;;;;5045838;28;20101;-88
2021/10/13 11:48:01;;;;;;;2.50;0.20;;;13.30;99.90;;;;;;5006063;28;20057;-86
2021/10/13 11:50:31;;;;;;;5.13;0.10;;;13.70;99.90;;;;;;5006424;28;20054;-87
2021/10/13 11:52:58;;;;;;;5.18;0.20;;;13.70;99.90;;;;;;5006629;28;20117;-88
2021/10/13 11:55:28;;;;;;;1.67;0.15;;;14.00;99.90;;;;;;5006135;28;20026;-85
2021/10/13 11:57:57;;;;;;;2.45;0.17;;;14.00;99.90;;;;;;4973924;28;20045;-87
2021/10/13 12:00:27;;;;;;;1.33;0.10;;;14.00;99.90;;;;;;4990222;28;20044;-87
2021/10/13 12:03:12;;;;;;;4.35;0.20;;;13.70;99.90;;;;;;4989776;28;20030;-87
2021/10/13 12:05:45;;;;;;;3.42;0.10;;;13.60;99.90;;;;;;4973817;28;20034;-88
2021/10/13 12:08:16;;;;;;;1.75;0.20;;;13.70;99.90;;;;;;4973721;28;20034;-89
2021/10/13 12:10:49;;;;;;;2.03;0.20;;;13.70;99.90;;;;;;5007041;28;20045;-88
2021/10/13 12:13:28;;;;;;;1.40;0.10;;;13.70;99.90;;;;;;4989591;28;20046;-87
2021/10/13 12:16:08;;;;;;;3.70;0.20;;;13.70;99.90;;;;;;4973195;28;20034;-88
2021/10/13 12:18:45;;;;;;;1.25;0.20;;;13.70;99.90;;;;;;4973319;28;20033;-88
2021/10/13 12:21:14;;;;;;;3.10;0.20;;;13.80;99.90;;;;;;4989282;28;20043;-86
2021/10/13 12:23:44;;;;;;;2.90;0.10;;;13.70;99.90;;;;;;4989443;28;20030;-87
2021/10/13 12:26:17;;;;;;;2.85;0.20;;;13.60;99.90;;;;;;5005233;28;20034;-89
2021/10/13 12:28:44;;;;;;;3.22;0.13;;;13.50;99.90;;;;;;4989049;28;20129;-86
2021/10/13 12:31:13;;;;;;;5.15;0.20;;;13.50;99.90;;;;;;4972895;28;20049;-87
2021/10/13 12:33:41;;;;;;;2.42;0.10;;;13.70;99.90;;;;;;4972871;28;20045;-86
2021/10/13 12:36:16;;;;;;;4.40;0.10;;;13.90;99.90;;;;;;4972973;28;20098;-87
2021/10/13 12:39:19;;;;;;;0.70;0.40;;;14.00;99.90;;;;;;4988954;28;20043;-84
2021/10/13 12:41:47;;;;;;;1.25;0.20;;;13.80;99.90;;;;;;4986420;28;20034;-86
2021/10/13 12:44:17;;;;;;;3.03;0.10;;;13.60;99.90;;;;;;5004430;28;20045;-87
2021/10/13 12:46:53;;;;;;;0.90;0.10;;;13.70;99.90;;;;;;4988775;28;20058;-88
2021/10/13 12:49:19;;;;;;;1.95;0.20;;;13.60;99.90;;;;;;5006448;28;20030;-88
2021/10/13 12:51:48;;;;;;;2.50;0.32;;;13.60;99.90;;;;;;5004854;28;20057;-86
2021/10/13 12:54:14;;;;;;;2.53;0.30;;;13.50;99.90;;;;;;4972707;28;20086;-87
2021/10/13 12:56:40;;;;;;;2.83;0.20;;;13.40;99.90;;;;;;4972668;28;20062;-86
2021/10/13 12:59:05;;;;;;;2.58;0.30;;;13.50;99.90;;;;;;4972842;28;20034;-87
2021/10/13 13:01:31;;;;;;;2.92;0.30;;;13.80;99.90;;;;;;4972571;28;20040;-87
2021/10/13 13:03:56;;;;;;;5.32;0.20;;;14.10;99.90;;;;;;4972738;28;20525;-87
2021/10/13 13:06:22;;;;;;;2.13;0.20;;;14.60;99.90;;;;;;4972669;28;20069;-89